GENERAL EDWARD LAWRENCE LOGAN INTL

KBOS (BOS)
Boston, Massachusetts
Towered

Vatsim Metar:
KBOS 131954Z 08012KT 10SM FEW032 SCT090 SCT220 12/05 A3003 RMK AO2 SLP169 T01220050 VISNO E $